sensor_id;sensor_type;location;lat;lon;timestamp;P1;durP1;ratioP1;P2;durP2;ratioP2
6043;SDS011;3050;42.660;23.276;2024-01-15T00:01:02;15.87;;;10.40;;
6043;SDS011;3050;42.660;23.276;2024-01-15T00:03:35;17.73;;;8.37;;
6043;SDS011;3050;42.660;23.276;2024-01-15T00:06:05;34.47;;;13.23;;
6043;SDS011;3050;42.660;23.276;2024-01-15T00:08:39;25.93;;;11.20;;
6043;SDS011;3050;42.660;23.276;2024-01-15T00:11:13;15.57;;;7.43;;
6043;SDS011;3050;42.660;23.276;2024-01-15T00:13:43;14.10;;;6.93;;
6043;SDS011;3050;42.660;23.276;2024-01-15T00:16:10;13.80;;;7.43;;
6043;SDS011;3050;42.660;23.276;2024-01-15T00:18:38;16.53;;;8.13;;
6043;SDS011;3050;42.660;23.276;2024-01-15T00:21:05;23.73;;;9.73;;
6043;SDS011;3050;42.660;23.276;2024-01-15T00:23:39;39.63;;;9.27;;
6043;SDS011;3050;42.660;23.276;2024-01-15T00:26:11;25.27;;;10.07;;
6043;SDS011;3050;42.660;23.276;2024-01-15T00:28:41;22.37;;;8.80;;
6043;SDS011;3050;42.660;23.276;2024-01-15T00:31:09;17.30;;;7.73;;
6043;SDS011;3050;42.660;23.276;2024-01-15T00:36:09;9.83;;;5.93;;
6043;SDS011;3050;42.660;23.276;2024-01-15T00:38:36;11.67;;;7.60;;
6043;SDS011;3050;42.660;23.276;2024-01-15T00:41:05;13.93;;;7.70;;
6043;SDS011;3050;42.660;23.276;2024-01-15T00:43:35;24.13;;;8.23;;
6043;SDS011;3050;42.660;23.276;2024-01-15T00:46:04;11.67;;;5.77;;
6043;SDS011;3050;42.660;23.276;2024-01-15T00:48:32;23.17;;;7.87;;
6043;SDS011;3050;42.660;23.276;2024-01-15T00:51:00;14.43;;;6.93;;
6043;SDS011;3050;42.660;23.276;2024-01-15T00:53:30;8.07;;;7.30;;
6043;SDS011;3050;42.660;23.276;2024-01-15T00:55:58;16.30;;;8.80;;
6043;SDS011;3050;42.660;23.276;2024-01-15T00:58:26;12.37;;;7.13;;
6043;SDS011;3050;42.660;23.276;2024-01-15T01:00:58;22.57;;;6.47;;
6043;SDS011;3050;42.660;23.276;2024-01-15T01:03:25;15.33;;;7.50;;
6043;SDS011;3050;42.660;23.276;2024-01-15T01:05:53;11.73;;;7.70;;
6043;SDS011;3050;42.660;23.276;2024-01-15T01:08:21;9.10;;;8.10;;
6043;SDS011;3050;42.660;23.276;2024-01-15T01:10:51;20.93;;;8.10;;
6043;SDS011;3050;42.660;23.276;2024-01-15T01:13:19;15.73;;;7.57;;
6043;SDS011;3050;42.660;23.276;2024-01-15T01:15:50;20.70;;;7.50;;
6043;SDS011;3050;42.660;23.276;2024-01-15T01:18:20;15.47;;;7.43;;
6043;SDS011;3050;42.660;23.276;2024-01-15T01:20:50;16.37;;;7.57;;
6043;SDS011;3050;42.660;23.276;2024-01-15T01:23:18;10.17;;;5.70;;
6043;SDS011;3050;42.660;23.276;2024-01-15T01:25:48;11.17;;;6.50;;
6043;SDS011;3050;42.660;23.276;2024-01-15T01:28:17;8.87;;;5.10;;
6043;SDS011;3050;42.660;23.276;2024-01-15T01:30:45;5.87;;;4.57;;
6043;SDS011;3050;42.660;23.276;2024-01-15T01:33:12;8.50;;;5.57;;
6043;SDS011;3050;42.660;23.276;2024-01-15T01:35:41;17.30;;;5.60;;
6043;SDS011;3050;42.660;23.276;2024-01-15T01:38:12;11.00;;;6.13;;
6043;SDS011;3050;42.660;23.276;2024-01-15T01:40:39;12.60;;;6.37;;
6043;SDS011;3050;42.660;23.276;2024-01-15T01:43:09;11.70;;;4.67;;
6043;SDS011;3050;42.660;23.276;2024-01-15T01:45:39;11.00;;;7.27;;
6043;SDS011;3050;42.660;23.276;2024-01-15T01:48:07;10.00;;;6.07;;
6043;SDS011;3050;42.660;23.276;2024-01-15T01:50:36;9.50;;;5.27;;
6043;SDS011;3050;42.660;23.276;2024-01-15T01:53:06;9.37;;;4.77;;
6043;SDS011;3050;42.660;23.276;2024-01-15T01:55:35;11.13;;;4.83;;
6043;SDS011;3050;42.660;23.276;2024-01-15T01:58:04;13.37;;;5.70;;
6043;SDS011;3050;42.660;23.276;2024-01-15T02:00:31;13.50;;;6.20;;
6043;SDS011;3050;42.660;23.276;2024-01-15T02:03:01;12.83;;;6.10;;
6043;SDS011;3050;42.660;23.276;2024-01-15T02:05:30;7.87;;;6.13;;
6043;SDS011;3050;42.660;23.276;2024-01-15T02:07:58;10.93;;;4.83;;
6043;SDS011;3050;42.660;23.276;2024-01-15T02:10:29;10.30;;;5.67;;
6043;SDS011;3050;42.660;23.276;2024-01-15T02:13:00;12.63;;;6.30;;
6043;SDS011;3050;42.660;23.276;2024-01-15T02:15:27;5.57;;;4.83;;
6043;SDS011;3050;42.660;23.276;2024-01-15T02:17:56;14.67;;;5.83;;
6043;SDS011;3050;42.660;23.276;2024-01-15T02:20:26;16.43;;;6.57;;
6043;SDS011;3050;42.660;23.276;2024-01-15T02:23:06;9.67;;;4.07;;
6043;SDS011;3050;42.660;23.276;2024-01-15T02:25:35;12.47;;;5.57;;
6043;SDS011;3050;42.660;23.276;2024-01-15T02:28:03;7.70;;;6.90;;
6043;SDS011;3050;42.660;23.276;2024-01-15T02:30:30;9.73;;;5.37;;
6043;SDS011;3050;42.660;23.276;2024-01-15T02:32:58;5.97;;;5.10;;
6043;SDS011;3050;42.660;23.276;2024-01-15T02:35:25;11.17;;;7.07;;
6043;SDS011;3050;42.660;23.276;2024-01-15T02:37:55;9.97;;;5.43;;
6043;SDS011;3050;42.660;23.276;2024-01-15T02:40:25;15.33;;;5.83;;
6043;SDS011;3050;42.660;23.276;2024-01-15T02:42:52;7.00;;;5.37;;
6043;SDS011;3050;42.660;23.276;2024-01-15T02:45:21;8.87;;;6.10;;
6043;SDS011;3050;42.660;23.276;2024-01-15T02:47:49;9.73;;;5.23;;
6043;SDS011;3050;42.660;23.276;2024-01-15T02:50:16;10.30;;;6.63;;
6043;SDS011;3050;42.660;23.276;2024-01-15T02:52:44;11.53;;;6.17;;
6043;SDS011;3050;42.660;23.276;2024-01-15T02:55:11;13.97;;;5.27;;
6043;SDS011;3050;42.660;23.276;2024-01-15T02:57:40;10.63;;;4.47;;
6043;SDS011;3050;42.660;23.276;2024-01-15T03:00:08;9.03;;;6.90;;
6043;SDS011;3050;42.660;23.276;2024-01-15T03:02:40;7.87;;;5.27;;
6043;SDS011;3050;42.660;23.276;2024-01-15T03:05:10;13.20;;;5.13;;
6043;SDS011;3050;42.660;23.276;2024-01-15T03:07:38;10.93;;;4.73;;
6043;SDS011;3050;42.660;23.276;2024-01-15T03:10:20;11.70;;;6.43;;
6043;SDS011;3050;42.660;23.276;2024-01-15T03:12:51;6.33;;;4.60;;
6043;SDS011;3050;42.660;23.276;2024-01-15T03:15:26;11.00;;;4.67;;
6043;SDS011;3050;42.660;23.276;2024-01-15T03:17:54;13.30;;;6.40;;
6043;SDS011;3050;42.660;23.276;2024-01-15T03:20:21;8.23;;;4.57;;
6043;SDS011;3050;42.660;23.276;2024-01-15T03:22:48;6.50;;;5.60;;
6043;SDS011;3050;42.660;23.276;2024-01-15T03:25:15;8.03;;;5.03;;
6043;SDS011;3050;42.660;23.276;2024-01-15T03:27:43;11.10;;;5.47;;
6043;SDS011;3050;42.660;23.276;2024-01-15T03:30:12;13.17;;;6.80;;
6043;SDS011;3050;42.660;23.276;2024-01-15T03:32:44;11.60;;;6.87;;
6043;SDS011;3050;42.660;23.276;2024-01-15T03:35:12;12.13;;;6.57;;
6043;SDS011;3050;42.660;23.276;2024-01-15T03:37:39;11.53;;;6.00;;
6043;SDS011;3050;42.660;23.276;2024-01-15T03:40:10;9.27;;;7.33;;
6043;SDS011;3050;42.660;23.276;2024-01-15T03:42:38;11.77;;;6.57;;
6043;SDS011;3050;42.660;23.276;2024-01-15T03:45:06;16.53;;;6.10;;
6043;SDS011;3050;42.660;23.276;2024-01-15T03:50:22;19.80;;;8.23;;
6043;SDS011;3050;42.660;23.276;2024-01-15T03:52:51;33.23;;;18.20;;
6043;SDS011;3050;42.660;23.276;2024-01-15T03:55:18;17.20;;;8.50;;
6043;SDS011;3050;42.660;23.276;2024-01-15T03:57:45;12.00;;;7.57;;
6043;SDS011;3050;42.660;23.276;2024-01-15T04:00:14;18.63;;;8.17;;
6043;SDS011;3050;42.660;23.276;2024-01-15T04:02:48;19.60;;;8.00;;
6043;SDS011;3050;42.660;23.276;2024-01-15T04:05:15;25.20;;;10.13;;
6043;SDS011;3050;42.660;23.276;2024-01-15T04:07:44;13.53;;;7.23;;
6043;SDS011;3050;42.660;23.276;2024-01-15T04:10:14;7.77;;;6.17;;
6043;SDS011;3050;42.660;23.276;2024-01-15T04:12:42;23.27;;;10.53;;
6043;SDS011;3050;42.660;23.276;2024-01-15T04:15:10;30.97;;;11.67;;
6043;SDS011;3050;42.660;23.276;2024-01-15T04:17:37;17.23;;;7.67;;
6043;SDS011;3050;42.660;23.276;2024-01-15T04:20:04;15.30;;;8.93;;
6043;SDS011;3050;42.660;23.276;2024-01-15T04:22:33;10.70;;;6.70;;
6043;SDS011;3050;42.660;23.276;2024-01-15T04:25:03;15.83;;;8.43;;
6043;SDS011;3050;42.660;23.276;2024-01-15T04:27:42;13.10;;;7.70;;
6043;SDS011;3050;42.660;23.276;2024-01-15T04:30:24;21.50;;;9.67;;
6043;SDS011;3050;42.660;23.276;2024-01-15T04:32:58;19.37;;;8.43;;
6043;SDS011;3050;42.660;23.276;2024-01-15T04:35:33;18.70;;;7.27;;
6043;SDS011;3050;42.660;23.276;2024-01-15T04:38:05;20.37;;;9.33;;
6043;SDS011;3050;42.660;23.276;2024-01-15T04:40:42;15.97;;;9.47;;
6043;SDS011;3050;42.660;23.276;2024-01-15T04:43:14;27.70;;;9.23;;
6043;SDS011;3050;42.660;23.276;2024-01-15T04:45:47;16.90;;;9.20;;
6043;SDS011;3050;42.660;23.276;2024-01-15T04:48:17;13.50;;;6.73;;
6043;SDS011;3050;42.660;23.276;2024-01-15T04:53:30;22.53;;;8.47;;
6043;SDS011;3050;42.660;23.276;2024-01-15T04:56:01;16.80;;;7.80;;
6043;SDS011;3050;42.660;23.276;2024-01-15T04:58:30;19.83;;;8.60;;
6043;SDS011;3050;42.660;23.276;2024-01-15T05:01:01;25.87;;;13.27;;
6043;SDS011;3050;42.660;23.276;2024-01-15T05:03:33;21.73;;;10.63;;
6043;SDS011;3050;42.660;23.276;2024-01-15T05:06:12;22.43;;;9.43;;
6043;SDS011;3050;42.660;23.276;2024-01-15T05:08:47;23.17;;;8.80;;
6043;SDS011;3050;42.660;23.276;2024-01-15T05:11:19;17.67;;;8.93;;
6043;SDS011;3050;42.660;23.276;2024-01-15T05:13:48;14.27;;;6.90;;
6043;SDS011;3050;42.660;23.276;2024-01-15T05:16:17;27.90;;;8.73;;
6043;SDS011;3050;42.660;23.276;2024-01-15T05:18:53;29.23;;;9.17;;
6043;SDS011;3050;42.660;23.276;2024-01-15T05:21:21;18.27;;;7.90;;
6043;SDS011;3050;42.660;23.276;2024-01-15T05:23:52;18.43;;;9.13;;
6043;SDS011;3050;42.660;23.276;2024-01-15T05:26:22;27.53;;;12.07;;
6043;SDS011;3050;42.660;23.276;2024-01-15T05:28:50;25.23;;;11.27;;
6043;SDS011;3050;42.660;23.276;2024-01-15T05:31:21;24.20;;;13.03;;
6043;SDS011;3050;42.660;23.276;2024-01-15T05:33:50;23.10;;;11.43;;
6043;SDS011;3050;42.660;23.276;2024-01-15T05:36:19;25.50;;;12.17;;
6043;SDS011;3050;42.660;23.276;2024-01-15T05:38:47;30.17;;;11.30;;
6043;SDS011;3050;42.660;23.276;2024-01-15T05:41:16;19.13;;;9.60;;
6043;SDS011;3050;42.660;23.276;2024-01-15T05:43:47;22.13;;;10.53;;
6043;SDS011;3050;42.660;23.276;2024-01-15T05:46:15;34.80;;;11.40;;
6043;SDS011;3050;42.660;23.276;2024-01-15T05:48:46;24.37;;;10.87;;
6043;SDS011;3050;42.660;23.276;2024-01-15T05:51:15;30.53;;;11.67;;
6043;SDS011;3050;42.660;23.276;2024-01-15T05:53:41;22.43;;;12.53;;
6043;SDS011;3050;42.660;23.276;2024-01-15T05:56:10;17.93;;;10.73;;
6043;SDS011;3050;42.660;23.276;2024-01-15T05:58:37;25.60;;;11.60;;
6043;SDS011;3050;42.660;23.276;2024-01-15T06:01:06;32.10;;;13.60;;
6043;SDS011;3050;42.660;23.276;2024-01-15T06:03:35;37.73;;;13.90;;
6043;SDS011;3050;42.660;23.276;2024-01-15T06:06:05;45.07;;;16.37;;
6043;SDS011;3050;42.660;23.276;2024-01-15T06:08:35;40.83;;;17.47;;
6043;SDS011;3050;42.660;23.276;2024-01-15T06:11:03;36.33;;;19.33;;
6043;SDS011;3050;42.660;23.276;2024-01-15T06:13:31;46.63;;;19.43;;
6043;SDS011;3050;42.660;23.276;2024-01-15T06:16:00;36.13;;;18.03;;
6043;SDS011;3050;42.660;23.276;2024-01-15T06:18:31;45.23;;;19.73;;
6043;SDS011;3050;42.660;23.276;2024-01-15T06:21:01;58.23;;;19.77;;
6043;SDS011;3050;42.660;23.276;2024-01-15T06:23:31;57.80;;;22.50;;
6043;SDS011;3050;42.660;23.276;2024-01-15T06:26:06;53.40;;;21.00;;
6043;SDS011;3050;42.660;23.276;2024-01-15T06:28:33;36.73;;;18.87;;
6043;SDS011;3050;42.660;23.276;2024-01-15T06:31:05;40.53;;;19.37;;
6043;SDS011;3050;42.660;23.276;2024-01-15T06:33:56;46.00;;;19.17;;
6043;SDS011;3050;42.660;23.276;2024-01-15T06:36:24;42.03;;;17.30;;
6043;SDS011;3050;42.660;23.276;2024-01-15T06:38:52;45.20;;;19.13;;
6043;SDS011;3050;42.660;23.276;2024-01-15T06:41:29;42.43;;;18.00;;
6043;SDS011;3050;42.660;23.276;2024-01-15T06:43:58;50.23;;;19.33;;
6043;SDS011;3050;42.660;23.276;2024-01-15T06:46:26;39.97;;;18.67;;
6043;SDS011;3050;42.660;23.276;2024-01-15T06:49:01;45.03;;;20.90;;
6043;SDS011;3050;42.660;23.276;2024-01-15T06:51:30;60.03;;;21.80;;
6043;SDS011;3050;42.660;23.276;2024-01-15T06:54:00;44.80;;;18.77;;
6043;SDS011;3050;42.660;23.276;2024-01-15T06:56:31;43.07;;;18.20;;
6043;SDS011;3050;42.660;23.276;2024-01-15T06:59:01;46.83;;;16.80;;
6043;SDS011;3050;42.660;23.276;2024-01-15T07:01:37;39.90;;;18.03;;
6043;SDS011;3050;42.660;23.276;2024-01-15T07:04:20;36.93;;;16.43;;
6043;SDS011;3050;42.660;23.276;2024-01-15T07:06:55;34.73;;;17.43;;
6043;SDS011;3050;42.660;23.276;2024-01-15T07:09:23;48.57;;;22.00;;
6043;SDS011;3050;42.660;23.276;2024-01-15T07:11:57;57.37;;;25.70;;
6043;SDS011;3050;42.660;23.276;2024-01-15T07:14:55;57.13;;;23.40;;
6043;SDS011;3050;42.660;23.276;2024-01-15T07:17:17;48.67;;;22.40;;
6043;SDS011;3050;42.660;23.276;2024-01-15T07:19:48;41.17;;;18.80;;
6043;SDS011;3050;42.660;23.276;2024-01-15T07:22:24;45.67;;;16.53;;
6043;SDS011;3050;42.660;23.276;2024-01-15T07:24:52;31.60;;;17.40;;
6043;SDS011;3050;42.660;23.276;2024-01-15T07:27:22;42.20;;;17.80;;
6043;SDS011;3050;42.660;23.276;2024-01-15T07:29:55;36.97;;;16.30;;
6043;SDS011;3050;42.660;23.276;2024-01-15T07:32:24;37.47;;;16.77;;
6043;SDS011;3050;42.660;23.276;2024-01-15T07:34:56;45.03;;;17.33;;
6043;SDS011;3050;42.660;23.276;2024-01-15T07:37:24;32.97;;;15.37;;
6043;SDS011;3050;42.660;23.276;2024-01-15T07:39:52;44.63;;;17.43;;
6043;SDS011;3050;42.660;23.276;2024-01-15T07:42:21;51.80;;;21.63;;
6043;SDS011;3050;42.660;23.276;2024-01-15T07:44:48;30.07;;;16.80;;
6043;SDS011;3050;42.660;23.276;2024-01-15T07:47:17;42.50;;;15.83;;
6043;SDS011;3050;42.660;23.276;2024-01-15T07:49:45;39.33;;;18.50;;
6043;SDS011;3050;42.660;23.276;2024-01-15T07:52:14;35.57;;;16.40;;
6043;SDS011;3050;42.660;23.276;2024-01-15T07:54:41;35.13;;;16.63;;
6043;SDS011;3050;42.660;23.276;2024-01-15T07:57:08;43.37;;;17.53;;
6043;SDS011;3050;42.660;23.276;2024-01-15T07:59:36;37.27;;;17.53;;
6043;SDS011;3050;42.660;23.276;2024-01-15T08:02:04;56.27;;;25.83;;
6043;SDS011;3050;42.660;23.276;2024-01-15T08:04:31;38.83;;;16.60;;
6043;SDS011;3050;42.660;23.276;2024-01-15T08:07:03;38.90;;;17.47;;
6043;SDS011;3050;42.660;23.276;2024-01-15T08:09:34;37.83;;;16.87;;
6043;SDS011;3050;42.660;23.276;2024-01-15T08:12:01;33.63;;;13.83;;
6043;SDS011;3050;42.660;23.276;2024-01-15T08:14:31;40.63;;;13.00;;
6043;SDS011;3050;42.660;23.276;2024-01-15T08:16:59;31.27;;;11.97;;
6043;SDS011;3050;42.660;23.276;2024-01-15T08:19:26;31.30;;;12.60;;
6043;SDS011;3050;42.660;23.276;2024-01-15T08:21:54;33.37;;;14.23;;
6043;SDS011;3050;42.660;23.276;2024-01-15T08:24:22;35.30;;;13.70;;
6043;SDS011;3050;42.660;23.276;2024-01-15T08:26:50;38.07;;;14.43;;
6043;SDS011;3050;42.660;23.276;2024-01-15T08:29:18;35.97;;;15.67;;
6043;SDS011;3050;42.660;23.276;2024-01-15T08:31:53;27.43;;;13.53;;
6043;SDS011;3050;42.660;23.276;2024-01-15T08:37:19;36.43;;;14.80;;
6043;SDS011;3050;42.660;23.276;2024-01-15T08:39:48;33.97;;;14.47;;
6043;SDS011;3050;42.660;23.276;2024-01-15T08:42:22;34.30;;;16.37;;
6043;SDS011;3050;42.660;23.276;2024-01-15T08:44:50;42.47;;;17.17;;
6043;SDS011;3050;42.660;23.276;2024-01-15T08:47:25;47.93;;;17.47;;
6043;SDS011;3050;42.660;23.276;2024-01-15T08:50:01;42.13;;;19.67;;
6043;SDS011;3050;42.660;23.276;2024-01-15T08:52:28;32.40;;;13.97;;
6043;SDS011;3050;42.660;23.276;2024-01-15T08:55:05;38.27;;;16.60;;
6043;SDS011;3050;42.660;23.276;2024-01-15T08:57:41;30.43;;;13.10;;
6043;SDS011;3050;42.660;23.276;2024-01-15T09:00:12;44.17;;;15.70;;
6043;SDS011;3050;42.660;23.276;2024-01-15T09:02:50;33.90;;;16.77;;
6043;SDS011;3050;42.660;23.276;2024-01-15T09:05:19;34.17;;;15.00;;
6043;SDS011;3050;42.660;23.276;2024-01-15T09:07:48;26.30;;;13.73;;
6043;SDS011;3050;42.660;23.276;2024-01-15T09:10:28;53.30;;;19.23;;
6043;SDS011;3050;42.660;23.276;2024-01-15T09:13:21;28.33;;;15.53;;
6043;SDS011;3050;42.660;23.276;2024-01-15T09:15:50;39.23;;;14.23;;
6043;SDS011;3050;42.660;23.276;2024-01-15T09:18:21;32.93;;;15.03;;
6043;SDS011;3050;42.660;23.276;2024-01-15T09:20:48;32.93;;;14.27;;
6043;SDS011;3050;42.660;23.276;2024-01-15T09:23:16;39.33;;;17.63;;
6043;SDS011;3050;42.660;23.276;2024-01-15T09:25:50;34.73;;;15.33;;
6043;SDS011;3050;42.660;23.276;2024-01-15T09:28:33;26.63;;;13.93;;
6043;SDS011;3050;42.660;23.276;2024-01-15T09:31:10;31.63;;;14.17;;
6043;SDS011;3050;42.660;23.276;2024-01-15T09:33:47;25.00;;;14.50;;
6043;SDS011;3050;42.660;23.276;2024-01-15T09:39:16;27.80;;;14.20;;
6043;SDS011;3050;42.660;23.276;2024-01-15T09:42:30;35.67;;;14.03;;
6043;SDS011;3050;42.660;23.276;2024-01-15T09:47:35;29.90;;;14.03;;
6043;SDS011;3050;42.660;23.276;2024-01-15T09:50:11;31.97;;;13.97;;
6043;SDS011;3050;42.660;23.276;2024-01-15T09:52:46;27.43;;;15.30;;
6043;SDS011;3050;42.660;23.276;2024-01-15T09:55:15;48.87;;;16.73;;
6043;SDS011;3050;42.660;23.276;2024-01-15T09:57:51;26.27;;;13.23;;
6043;SDS011;3050;42.660;23.276;2024-01-15T10:00:25;27.03;;;11.80;;
6043;SDS011;3050;42.660;23.276;2024-01-15T10:05:53;25.33;;;13.87;;
6043;SDS011;3050;42.660;23.276;2024-01-15T10:11:29;32.63;;;11.83;;
6043;SDS011;3050;42.660;23.276;2024-01-15T10:14:06;29.40;;;13.83;;
6043;SDS011;3050;42.660;23.276;2024-01-15T10:16:43;24.33;;;13.43;;
6043;SDS011;3050;42.660;23.276;2024-01-15T10:19:30;17.33;;;10.57;;
6043;SDS011;3050;42.660;23.276;2024-01-15T10:22:13;22.80;;;9.67;;
6043;SDS011;3050;42.660;23.276;2024-01-15T10:27:58;29.27;;;12.47;;
6043;SDS011;3050;42.660;23.276;2024-01-15T10:30:43;51.17;;;16.27;;
6043;SDS011;3050;42.660;23.276;2024-01-15T10:33:25;38.90;;;16.93;;
6043;SDS011;3050;42.660;23.276;2024-01-15T10:36:05;41.43;;;15.97;;
6043;SDS011;3050;42.660;23.276;2024-01-15T10:38:46;44.13;;;20.23;;
6043;SDS011;3050;42.660;23.276;2024-01-15T10:41:14;44.40;;;21.13;;
6043;SDS011;3050;42.660;23.276;2024-01-15T10:43:42;46.70;;;23.77;;
6043;SDS011;3050;42.660;23.276;2024-01-15T10:46:11;39.77;;;19.30;;
6043;SDS011;3050;42.660;23.276;2024-01-15T10:48:42;38.43;;;19.93;;
6043;SDS011;3050;42.660;23.276;2024-01-15T10:53:59;48.70;;;22.00;;
6043;SDS011;3050;42.660;23.276;2024-01-15T10:56:28;45.63;;;21.17;;
6043;SDS011;3050;42.660;23.276;2024-01-15T10:59:00;49.40;;;22.37;;
6043;SDS011;3050;42.660;23.276;2024-01-15T11:01:30;41.13;;;20.90;;
6043;SDS011;3050;42.660;23.276;2024-01-15T11:04:14;49.53;;;21.03;;
6043;SDS011;3050;42.660;23.276;2024-01-15T11:06:42;39.43;;;21.33;;
6043;SDS011;3050;42.660;23.276;2024-01-15T11:09:17;42.17;;;17.67;;
6043;SDS011;3050;42.660;23.276;2024-01-15T11:11:47;28.47;;;14.47;;
6043;SDS011;3050;42.660;23.276;2024-01-15T11:14:34;27.07;;;13.77;;
6043;SDS011;3050;42.660;23.276;2024-01-15T11:17:02;26.20;;;13.53;;
6043;SDS011;3050;42.660;23.276;2024-01-15T11:19:35;29.97;;;14.47;;
6043;SDS011;3050;42.660;23.276;2024-01-15T11:22:13;29.97;;;14.47;;
6043;SDS011;3050;42.660;23.276;2024-01-15T11:25:13;29.40;;;14.10;;
6043;SDS011;3050;42.660;23.276;2024-01-15T11:27:45;35.33;;;15.37;;
6043;SDS011;3050;42.660;23.276;2024-01-15T11:30:16;34.43;;;15.80;;
6043;SDS011;3050;42.660;23.276;2024-01-15T11:32:45;25.97;;;14.17;;
6043;SDS011;3050;42.660;23.276;2024-01-15T11:35:15;28.07;;;13.93;;
6043;SDS011;3050;42.660;23.276;2024-01-15T11:37:57;28.00;;;14.03;;
6043;SDS011;3050;42.660;23.276;2024-01-15T11:40:41;33.60;;;14.87;;
6043;SDS011;3050;42.660;23.276;2024-01-15T11:43:13;25.73;;;15.03;;
6043;SDS011;3050;42.660;23.276;2024-01-15T11:45:49;27.27;;;13.87;;
6043;SDS011;3050;42.660;23.276;2024-01-15T11:48:19;29.87;;;13.97;;
6043;SDS011;3050;42.660;23.276;2024-01-15T11:50:49;25.87;;;13.27;;
6043;SDS011;3050;42.660;23.276;2024-01-15T11:53:26;26.47;;;14.03;;
6043;SDS011;3050;42.660;23.276;2024-01-15T11:56:06;23.30;;;12.87;;
6043;SDS011;3050;42.660;23.276;2024-01-15T11:58:48;30.20;;;12.77;;
6043;SDS011;3050;42.660;23.276;2024-01-15T12:01:20;29.17;;;14.40;;
6043;SDS011;3050;42.660;23.276;2024-01-15T12:03:48;24.63;;;13.17;;
6043;SDS011;3050;42.660;23.276;2024-01-15T12:06:18;28.03;;;13.97;;
6043;SDS011;3050;42.660;23.276;2024-01-15T12:08:48;27.43;;;11.53;;
6043;SDS011;3050;42.660;23.276;2024-01-15T12:11:19;21.57;;;11.37;;
6043;SDS011;3050;42.660;23.276;2024-01-15T12:13:48;22.33;;;11.77;;
6043;SDS011;3050;42.660;23.276;2024-01-15T12:16:17;27.37;;;12.30;;
6043;SDS011;3050;42.660;23.276;2024-01-15T12:18:50;38.10;;;14.57;;
6043;SDS011;3050;42.660;23.276;2024-01-15T12:21:24;27.37;;;12.80;;
6043;SDS011;3050;42.660;23.276;2024-01-15T12:23:58;32.70;;;15.70;;
6043;SDS011;3050;42.660;23.276;2024-01-15T12:26:34;38.27;;;17.23;;
6043;SDS011;3050;42.660;23.276;2024-01-15T12:29:05;40.83;;;17.93;;
6043;SDS011;3050;42.660;23.276;2024-01-15T12:31:38;33.73;;;16.00;;
6043;SDS011;3050;42.660;23.276;2024-01-15T12:34:08;42.50;;;18.23;;
6043;SDS011;3050;42.660;23.276;2024-01-15T12:36:51;28.43;;;15.43;;
6043;SDS011;3050;42.660;23.276;2024-01-15T12:39:24;34.20;;;17.03;;
6043;SDS011;3050;42.660;23.276;2024-01-15T12:44:45;29.30;;;17.30;;
6043;SDS011;3050;42.660;23.276;2024-01-15T12:47:29;36.87;;;18.03;;
6043;SDS011;3050;42.660;23.276;2024-01-15T12:50:11;37.03;;;16.73;;
6043;SDS011;3050;42.660;23.276;2024-01-15T12:52:57;34.33;;;17.17;;
6043;SDS011;3050;42.660;23.276;2024-01-15T12:55:26;31.50;;;16.60;;
6043;SDS011;3050;42.660;23.276;2024-01-15T12:58:09;32.33;;;15.50;;
6043;SDS011;3050;42.660;23.276;2024-01-15T13:00:40;27.77;;;14.97;;
6043;SDS011;3050;42.660;23.276;2024-01-15T13:03:09;28.07;;;14.77;;
6043;SDS011;3050;42.660;23.276;2024-01-15T13:05:37;34.93;;;16.43;;
6043;SDS011;3050;42.660;23.276;2024-01-15T13:08:06;29.07;;;14.90;;
6043;SDS011;3050;42.660;23.276;2024-01-15T13:10:36;33.23;;;16.37;;
6043;SDS011;3050;42.660;23.276;2024-01-15T13:13:04;35.17;;;17.13;;
6043;SDS011;3050;42.660;23.276;2024-01-15T13:15:47;28.07;;;14.20;;
6043;SDS011;3050;42.660;23.276;2024-01-15T13:18:20;37.57;;;14.60;;
6043;SDS011;3050;42.660;23.276;2024-01-15T13:20:49;42.93;;;18.30;;
6043;SDS011;3050;42.660;23.276;2024-01-15T13:23:20;40.23;;;19.00;;
6043;SDS011;3050;42.660;23.276;2024-01-15T13:25:49;35.17;;;17.33;;
6043;SDS011;3050;42.660;23.276;2024-01-15T13:28:22;38.53;;;18.67;;
6043;SDS011;3050;42.660;23.276;2024-01-15T13:31:02;36.30;;;17.60;;
6043;SDS011;3050;42.660;23.276;2024-01-15T13:33:39;37.80;;;16.43;;
6043;SDS011;3050;42.660;23.276;2024-01-15T13:36:13;30.60;;;16.73;;
6043;SDS011;3050;42.660;23.276;2024-01-15T13:38:43;31.70;;;15.60;;
6043;SDS011;3050;42.660;23.276;2024-01-15T13:41:11;29.27;;;16.53;;
6043;SDS011;3050;42.660;23.276;2024-01-15T13:43:43;40.50;;;18.63;;
6043;SDS011;3050;42.660;23.276;2024-01-15T13:46:16;37.53;;;18.57;;
6043;SDS011;3050;42.660;23.276;2024-01-15T13:48:46;28.47;;;15.97;;
6043;SDS011;3050;42.660;23.276;2024-01-15T13:51:16;31.00;;;15.70;;
6043;SDS011;3050;42.660;23.276;2024-01-15T13:53:46;39.30;;;17.67;;
6043;SDS011;3050;42.660;23.276;2024-01-15T13:56:30;33.47;;;14.33;;
6043;SDS011;3050;42.660;23.276;2024-01-15T13:59:03;34.63;;;15.23;;
6043;SDS011;3050;42.660;23.276;2024-01-15T14:01:42;32.40;;;15.50;;
6043;SDS011;3050;42.660;23.276;2024-01-15T14:04:22;35.63;;;15.03;;
6043;SDS011;3050;42.660;23.276;2024-01-15T14:07:01;33.37;;;14.23;;
6043;SDS011;3050;42.660;23.276;2024-01-15T14:09:32;45.13;;;17.10;;
6043;SDS011;3050;42.660;23.276;2024-01-15T14:17:51;80.43;;;37.43;;
6043;SDS011;3050;42.660;23.276;2024-01-15T14:20:24;46.13;;;19.47;;
6043;SDS011;3050;42.660;23.276;2024-01-15T14:22:59;42.33;;;22.30;;
6043;SDS011;3050;42.660;23.276;2024-01-15T14:25:40;72.83;;;36.67;;
6043;SDS011;3050;42.660;23.276;2024-01-15T14:28:18;38.60;;;18.87;;
6043;SDS011;3050;42.660;23.276;2024-01-15T14:30:57;37.87;;;17.23;;
6043;SDS011;3050;42.660;23.276;2024-01-15T14:42:10;34.77;;;17.30;;
6043;SDS011;3050;42.660;23.276;2024-01-15T14:44:40;66.20;;;30.80;;
6043;SDS011;3050;42.660;23.276;2024-01-15T14:47:08;43.47;;;22.03;;
6043;SDS011;3050;42.660;23.276;2024-01-15T14:49:57;47.43;;;22.23;;
6043;SDS011;3050;42.660;23.276;2024-01-15T14:52:53;42.87;;;20.67;;
6043;SDS011;3050;42.660;23.276;2024-01-15T14:58:11;29.97;;;12.83;;
6043;SDS011;3050;42.660;23.276;2024-01-15T15:00:40;45.60;;;20.43;;
6043;SDS011;3050;42.660;23.276;2024-01-15T15:03:24;52.40;;;21.57;;
6043;SDS011;3050;42.660;23.276;2024-01-15T15:06:08;61.17;;;26.73;;
6043;SDS011;3050;42.660;23.276;2024-01-15T15:08:37;55.00;;;28.87;;
6043;SDS011;3050;42.660;23.276;2024-01-15T15:11:09;61.40;;;26.77;;
6043;SDS011;3050;42.660;23.276;2024-01-15T15:13:40;42.93;;;20.10;;
6043;SDS011;3050;42.660;23.276;2024-01-15T15:16:12;44.27;;;17.23;;
6043;SDS011;3050;42.660;23.276;2024-01-15T15:18:41;43.97;;;20.77;;
6043;SDS011;3050;42.660;23.276;2024-01-15T15:21:09;46.20;;;22.20;;
6043;SDS011;3050;42.660;23.276;2024-01-15T15:23:37;41.33;;;20.70;;
6043;SDS011;3050;42.660;23.276;2024-01-15T15:26:05;49.47;;;24.93;;
6043;SDS011;3050;42.660;23.276;2024-01-15T15:28:34;54.67;;;25.53;;
6043;SDS011;3050;42.660;23.276;2024-01-15T15:31:05;48.90;;;21.03;;
6043;SDS011;3050;42.660;23.276;2024-01-15T15:33:37;52.93;;;20.63;;
6043;SDS011;3050;42.660;23.276;2024-01-15T15:36:07;57.60;;;22.13;;
6043;SDS011;3050;42.660;23.276;2024-01-15T15:38:34;45.70;;;19.23;;
6043;SDS011;3050;42.660;23.276;2024-01-15T15:41:03;49.67;;;21.03;;
6043;SDS011;3050;42.660;23.276;2024-01-15T15:43:32;38.37;;;15.70;;
6043;SDS011;3050;42.660;23.276;2024-01-15T15:46:01;43.83;;;18.70;;
6043;SDS011;3050;42.660;23.276;2024-01-15T15:48:31;39.60;;;18.83;;
6043;SDS011;3050;42.660;23.276;2024-01-15T15:50:59;32.73;;;12.50;;
6043;SDS011;3050;42.660;23.276;2024-01-15T15:53:28;21.60;;;10.67;;
6043;SDS011;3050;42.660;23.276;2024-01-15T15:55:57;36.17;;;15.30;;